Time;durP1;ratioP1;P1;durP2;ratioP2;P2;SDS_P1;SDS_P2;PMS_P1;PMS_P2;Temp;Humidity;BMP_temperature;BMP_pressure;BME280_temperature;BME280_humidity;BME280_pressure;Samples;Min_cycle;Max_cycle;Signal;HPM_P1;HPM_P2
2023/08/15 00:02:03;;;;;;;0.05;0.05;;;21.90;99.90;;;;;;5091468;28;20183;-62
2023/08/15 00:04:31;;;;;;;0.00;0.00;;;21.80;99.90;;;;;;5090197;28;20179;-62
2023/08/15 00:06:57;;;;;;;0.00;0.00;;;21.80;99.90;;;;;;5091592;28;20639;-62
2023/08/15 00:09:23;;;;;;;0.00;0.00;;;21.80;99.90;;;;;;5091336;28;20191;-62
2023/08/15 00:11:48;;;;;;;0.00;0.00;;;21.80;99.90;;;;;;5091169;28;20215;-62
2023/08/15 00:14:15;;;;;;;0.03;0.03;;;21.80;99.90;;;;;;5091150;28;20311;-62
2023/08/15 00:16:41;;;;;;;0.00;0.00;;;21.80;99.90;;;;;;5091264;28;20534;-62
2023/08/15 00:19:07;;;;;;;0.00;0.00;;;21.80;99.90;;;;;;5091185;28;20179;-62
2023/08/15 00:21:33;;;;;;;0.00;0.00;;;21.70;99.90;;;;;;5091250;28;20172;-62
2023/08/15 00:23:58;;;;;;;0.00;0.00;;;21.70;99.90;;;;;;5091346;28;20275;-62
2023/08/15 00:26:24;;;;;;;0.00;0.00;;;21.70;99.90;;;;;;5091337;28;20247;-62
2023/08/15 00:28:49;;;;;;;0.03;0.03;;;21.70;99.90;;;;;;5091015;28;20227;-62
2023/08/15 00:31:15;;;;;;;0.00;0.00;;;21.70;99.90;;;;;;5090921;28;20172;-62
2023/08/15 00:33:40;;;;;;;0.00;0.00;;;21.70;99.90;;;;;;5091206;28;20275;-62
2023/08/15 00:36:06;;;;;;;0.00;0.00;;;21.70;99.90;;;;;;5091091;28;20553;-62
2023/08/15 00:38:32;;;;;;;0.00;0.00;;;21.60;99.90;;;;;;5090932;28;20195;-62
2023/08/15 00:40:57;;;;;;;0.00;0.00;;;21.60;99.90;;;;;;5091038;28;20176;-62
2023/08/15 00:43:23;;;;;;;0.00;0.00;;;21.60;99.90;;;;;;5091005;28;20176;-62
2023/08/15 00:45:48;;;;;;;0.00;0.00;;;21.60;99.90;;;;;;5091297;28;20176;-62
2023/08/15 00:48:15;;;;;;;0.00;0.00;;;21.50;99.90;;;;;;5090967;28;20254;-62
2023/08/15 00:50:43;;;;;;;0.00;0.00;;;21.50;99.90;;;;;;5091221;28;20180;-62
2023/08/15 00:53:10;;;;;;;0.00;0.00;;;21.50;99.90;;;;;;5090759;28;20706;-62
2023/08/15 00:55:36;;;;;;;0.00;0.00;;;21.50;99.90;;;;;;5091257;28;20184;-62
2023/08/15 00:58:02;;;;;;;0.30;0.30;;;21.40;99.90;;;;;;5090943;28;20176;-61
2023/08/15 01:00:27;;;;;;;0.00;0.00;;;21.40;99.90;;;;;;5089734;28;20172;-62
2023/08/15 01:02:53;;;;;;;0.00;0.00;;;21.40;99.90;;;;;;5091053;28;20237;-62
2023/08/15 01:05:20;;;;;;;0.00;0.00;;;21.40;99.90;;;;;;5090857;28;20263;-62
2023/08/15 01:07:46;;;;;;;0.00;0.00;;;21.30;99.90;;;;;;5093747;28;20222;-62
2023/08/15 01:10:11;;;;;;;0.00;0.00;;;21.30;99.90;;;;;;5094402;28;20659;-62
2023/08/15 01:12:52;;;;;;;0.00;0.00;;;21.30;99.90;;;;;;5094510;28;20223;-62
2023/08/15 01:15:26;;;;;;;0.00;0.00;;;21.30;99.90;;;;;;5094499;28;20217;-61
2023/08/15 01:18:08;;;;;;;0.00;0.00;;;21.30;99.90;;;;;;5094351;28;20179;-62
2023/08/15 01:20:36;;;;;;;0.00;0.00;;;21.20;99.90;;;;;;5094398;28;20179;-62
2023/08/15 01:23:05;;;;;;;0.00;0.00;;;21.20;99.90;;;;;;5094429;28;20259;-62
2023/08/15 01:25:32;;;;;;;0.00;0.00;;;21.20;99.90;;;;;;5094300;28;20180;-62
2023/08/15 01:28:01;;;;;;;0.00;0.00;;;21.10;99.90;;;;;;5094138;28;20188;-62
2023/08/15 01:30:27;;;;;;;0.00;0.00;;;21.10;99.90;;;;;;5094308;28;20176;-61
2023/08/15 01:33:09;;;;;;;0.00;0.00;;;21.00;99.90;;;;;;5093999;28;20211;-61
2023/08/15 01:35:43;;;;;;;0.45;0.20;;;21.00;99.90;;;;;;5094134;28;20173;-62
2023/08/15 01:38:17;;;;;;;0.00;0.00;;;21.00;99.90;;;;;;5094135;28;20263;-62
2023/08/15 01:40:47;;;;;;;0.00;0.00;;;21.00;99.90;;;;;;5093996;28;20164;-61
2023/08/15 01:43:15;;;;;;;0.00;0.00;;;21.00;99.90;;;;;;5093677;28;20169;-61
2023/08/15 01:45:41;;;;;;;0.10;0.10;;;21.00;99.90;;;;;;5093843;28;20208;-62
2023/08/15 01:48:06;;;;;;;0.10;0.10;;;21.00;99.90;;;;;;5092838;28;20210;-61
2023/08/15 01:50:32;;;;;;;0.00;0.00;;;20.90;99.90;;;;;;5094078;28;20202;-62
2023/08/15 01:52:57;;;;;;;0.03;0.03;;;20.90;99.90;;;;;;5093877;28;20314;-61
2023/08/15 01:55:23;;;;;;;0.00;0.00;;;20.90;99.90;;;;;;5094105;28;20218;-62
2023/08/15 01:57:48;;;;;;;0.00;0.00;;;20.90;99.90;;;;;;5093955;28;20222;-61
2023/08/15 02:00:14;;;;;;;0.05;0.05;;;20.90;99.90;;;;;;5093702;28;20697;-61
2023/08/15 02:02:40;;;;;;;0.00;0.00;;;20.90;99.90;;;;;;5093880;28;20558;-61
2023/08/15 02:05:06;;;;;;;0.10;0.10;;;20.90;99.90;;;;;;5093639;28;20176;-62
2023/08/15 02:07:31;;;;;;;0.00;0.00;;;20.90;99.90;;;;;;5093598;28;20659;-61
2023/08/15 02:09:57;;;;;;;0.00;0.00;;;20.90;99.90;;;;;;5093607;28;20251;-61
2023/08/15 02:12:22;;;;;;;0.00;0.00;;;20.90;99.90;;;;;;5093367;28;20210;-61
2023/08/15 02:14:48;;;;;;;0.00;0.00;;;20.90;99.90;;;;;;5093607;28;20302;-61
2023/08/15 02:17:13;;;;;;;0.00;0.00;;;20.80;99.90;;;;;;5093250;28;20229;-61
2023/08/15 02:19:39;;;;;;;0.00;0.00;;;20.80;99.90;;;;;;5091491;28;20184;-61
2023/08/15 02:22:04;;;;;;;0.00;0.00;;;20.80;99.90;;;;;;5093491;28;20245;-61
2023/08/15 02:24:30;;;;;;;0.00;0.00;;;20.70;99.90;;;;;;5093472;28;20184;-61
2023/08/15 02:26:55;;;;;;;0.00;0.00;;;20.70;99.90;;;;;;5093308;28;20627;-61
2023/08/15 02:29:21;;;;;;;0.00;0.00;;;20.70;99.90;;;;;;5093171;28;20253;-61
2023/08/15 02:31:47;;;;;;;0.10;0.10;;;20.70;99.90;;;;;;5093245;28;20211;-61
2023/08/15 02:34:17;;;;;;;0.00;0.00;;;20.70;99.90;;;;;;5093008;28;20218;-61
2023/08/15 02:36:48;;;;;;;0.00;0.00;;;20.70;99.90;;;;;;5093176;28;20169;-61
2023/08/15 02:39:16;;;;;;;0.00;0.00;;;20.70;99.90;;;;;;5092995;28;20255;-61
2023/08/15 02:41:42;;;;;;;0.03;0.03;;;20.70;99.90;;;;;;5093111;28;20200;-62
2023/08/15 02:44:08;;;;;;;0.20;0.20;;;20.70;99.90;;;;;;5092923;28;20253;-61
2023/08/15 02:46:33;;;;;;;0.00;0.00;;;20.60;99.90;;;;;;5092916;28;20632;-62
2023/08/15 02:48:59;;;;;;;0.00;0.00;;;20.60;99.90;;;;;;5092877;28;20540;-62
2023/08/15 02:51:24;;;;;;;0.35;0.30;;;20.60;99.90;;;;;;5092695;28;20172;-61
2023/08/15 02:53:50;;;;;;;0.00;0.00;;;20.60;99.90;;;;;;5092646;28;20180;-61
2023/08/15 02:56:16;;;;;;;0.00;0.00;;;20.60;99.90;;;;;;5092697;28;20176;-61
2023/08/15 02:58:41;;;;;;;0.00;0.00;;;20.70;99.90;;;;;;5092841;28;20635;-62
2023/08/15 03:01:07;;;;;;;0.00;0.00;;;20.70;99.90;;;;;;5092534;28;20225;-61
2023/08/15 03:03:33;;;;;;;0.00;0.00;;;20.70;99.90;;;;;;5092497;28;20180;-61
2023/08/15 03:06:02;;;;;;;0.10;0.10;;;20.70;99.90;;;;;;5092465;28;20251;-61
2023/08/15 03:08:29;;;;;;;0.00;0.00;;;20.70;99.90;;;;;;5092494;28;20175;-61
2023/08/15 03:10:55;;;;;;;0.00;0.00;;;20.80;99.90;;;;;;5092388;28;20184;-61
2023/08/15 03:13:20;;;;;;;0.00;0.00;;;20.80;99.90;;;;;;5092563;28;20220;-61
2023/08/15 03:15:56;;;;;;;0.00;0.00;;;20.80;99.90;;;;;;5091238;28;20233;-61
2023/08/15 03:18:22;;;;;;;0.00;0.00;;;20.80;99.90;;;;;;5092485;28;20514;-61
2023/08/15 03:21:02;;;;;;;0.10;0.10;;;20.80;99.90;;;;;;5092381;28;20183;-61
2023/08/15 03:23:28;;;;;;;0.00;0.00;;;20.90;99.90;;;;;;5092366;28;20164;-61
2023/08/15 03:26:00;;;;;;;0.00;0.00;;;20.90;99.90;;;;;;5092067;28;20195;-61
2023/08/15 03:28:26;;;;;;;0.00;0.00;;;20.90;99.90;;;;;;5091996;28;20215;-61
2023/08/15 03:30:52;;;;;;;0.00;0.00;;;20.90;99.90;;;;;;5092102;28;20184;-61
2023/08/15 03:33:18;;;;;;;0.00;0.00;;;20.90;99.90;;;;;;5092015;28;20216;-61
2023/08/15 03:35:48;;;;;;;0.00;0.00;;;20.90;99.90;;;;;;5092180;28;20190;-61
2023/08/15 03:38:16;;;;;;;0.00;0.00;;;20.90;99.90;;;;;;5091846;28;20272;-61
2023/08/15 03:40:42;;;;;;;0.00;0.00;;;20.80;99.90;;;;;;5092066;28;20172;-61
2023/08/15 03:43:08;;;;;;;0.00;0.00;;;20.80;99.90;;;;;;5091863;28;20254;-61
2023/08/15 03:45:33;;;;;;;0.00;0.00;;;20.80;99.90;;;;;;5091830;28;20259;-61
2023/08/15 03:47:59;;;;;;;0.00;0.00;;;20.80;99.90;;;;;;5091860;28;20222;-61
2023/08/15 03:50:24;;;;;;;0.00;0.00;;;20.70;99.90;;;;;;5091742;28;20176;-61
2023/08/15 03:52:50;;;;;;;0.00;0.00;;;20.80;99.90;;;;;;5091416;28;20222;-61
2023/08/15 03:55:16;;;;;;;0.00;0.00;;;20.80;99.90;;;;;;5091662;28;20178;-61
2023/08/15 03:57:41;;;;;;;0.00;0.00;;;20.80;99.90;;;;;;5091667;28;20566;-61
2023/08/15 04:00:09;;;;;;;0.00;0.00;;;20.80;99.90;;;;;;5091572;28;20199;-61
2023/08/15 04:02:34;;;;;;;0.00;0.00;;;20.80;99.90;;;;;;5091019;28;20765;-61
2023/08/15 04:05:00;;;;;;;0.00;0.00;;;20.80;99.90;;;;;;5091037;28;20179;-61
2023/08/15 04:07:26;;;;;;;0.00;0.00;;;20.70;99.90;;;;;;5091179;28;20179;-62
2023/08/15 04:09:51;;;;;;;0.15;0.15;;;20.80;99.90;;;;;;5091105;28;20258;-61
2023/08/15 04:12:17;;;;;;;0.00;0.00;;;20.80;99.90;;;;;;5091203;28;20260;-61
2023/08/15 04:14:42;;;;;;;0.00;0.00;;;20.80;99.90;;;;;;5091195;28;20316;-61
2023/08/15 04:17:08;;;;;;;0.00;0.00;;;20.80;99.90;;;;;;5091214;28;20329;-61
2023/08/15 04:19:33;;;;;;;0.10;0.10;;;20.80;99.90;;;;;;5091190;28;20625;-61
2023/08/15 04:21:59;;;;;;;0.00;0.00;;;20.80;99.90;;;;;;5091362;28;20176;-61
2023/08/15 04:24:24;;;;;;;0.22;0.22;;;20.80;99.90;;;;;;5089973;28;20184;-61
2023/08/15 04:26:50;;;;;;;0.00;0.00;;;20.80;99.90;;;;;;5091334;28;20172;-61
2023/08/15 04:29:15;;;;;;;0.00;0.00;;;20.80;99.90;;;;;;5090986;28;20219;-61
2023/08/15 04:31:41;;;;;;;0.00;0.00;;;20.80;99.90;;;;;;5091189;28;20203;-61
2023/08/15 04:34:07;;;;;;;0.00;0.00;;;20.80;99.90;;;;;;5091403;28;20191;-62
2023/08/15 04:36:32;;;;;;;0.00;0.00;;;20.80;99.90;;;;;;5091130;28;20172;-62
2023/08/15 04:38:58;;;;;;;0.00;0.00;;;20.80;99.90;;;;;;5091338;28;20187;-61
2023/08/15 04:41:24;;;;;;;0.03;0.03;;;20.80;99.90;;;;;;5091332;28;20604;-61
2023/08/15 04:43:49;;;;;;;0.00;0.00;;;20.80;99.90;;;;;;5094898;28;20210;-62
2023/08/15 04:46:15;;;;;;;0.05;0.00;;;20.80;99.90;;;;;;5094810;28;20183;-62
2023/08/15 04:48:40;;;;;;;0.00;0.00;;;20.90;99.90;;;;;;5094915;28;20184;-61
2023/08/15 04:51:06;;;;;;;0.00;0.00;;;20.90;99.90;;;;;;5094641;28;20184;-62
2023/08/15 04:53:32;;;;;;;0.00;0.00;;;20.90;99.90;;;;;;5094239;28;20350;-61
2023/08/15 04:55:57;;;;;;;0.00;0.00;;;20.90;99.90;;;;;;5093481;28;20180;-62
2023/08/15 04:58:23;;;;;;;0.00;0.00;;;20.90;99.90;;;;;;5094574;28;20184;-62
2023/08/15 05:00:48;;;;;;;0.00;0.00;;;21.00;99.90;;;;;;5094407;28;20598;-62
2023/08/15 05:03:14;;;;;;;0.00;0.00;;;21.00;99.90;;;;;;5094239;28;20179;-62
2023/08/15 05:05:39;;;;;;;0.00;0.00;;;21.10;99.90;;;;;;5094109;28;20654;-62
2023/08/15 05:08:06;;;;;;;0.00;0.00;;;21.10;99.90;;;;;;5094401;28;20175;-62
2023/08/15 05:10:32;;;;;;;0.00;0.00;;;21.20;99.90;;;;;;5094224;28;20183;-62
2023/08/15 05:12:59;;;;;;;0.00;0.00;;;21.30;99.90;;;;;;5094488;28;20588;-62
2023/08/15 05:15:25;;;;;;;0.00;0.00;;;21.40;99.90;;;;;;5094386;28;20255;-62
2023/08/15 05:17:51;;;;;;;0.00;0.00;;;21.40;99.90;;;;;;5094290;28;20219;-62
2023/08/15 05:20:17;;;;;;;0.00;0.00;;;21.60;99.90;;;;;;5094340;28;20192;-62
2023/08/15 05:22:42;;;;;;;0.00;0.00;;;21.80;99.90;;;;;;5094410;28;20200;-62
2023/08/15 05:25:08;;;;;;;0.00;0.00;;;22.00;99.90;;;;;;5094111;28;20856;-62
2023/08/15 05:27:33;;;;;;;0.00;0.00;;;22.10;99.90;;;;;;5094134;28;20710;-62
2023/08/15 05:29:59;;;;;;;0.00;0.00;;;22.10;99.90;;;;;;5093872;28;20231;-62
2023/08/15 05:32:24;;;;;;;0.10;0.10;;;22.10;99.90;;;;;;5093850;28;20682;-62
2023/08/15 05:34:50;;;;;;;0.00;0.00;;;22.10;99.90;;;;;;5093909;28;20176;-62
2023/08/15 05:37:15;;;;;;;0.10;0.10;;;22.00;99.90;;;;;;5093800;28;20222;-62
2023/08/15 05:39:41;;;;;;;0.00;0.00;;;22.10;99.90;;;;;;5093911;28;20234;-62
2023/08/15 05:42:06;;;;;;;0.00;0.00;;;22.00;99.90;;;;;;5093701;28;20229;-62
2023/08/15 05:44:32;;;;;;;0.00;0.00;;;22.20;99.90;;;;;;5093802;28;20180;-63
2023/08/15 05:46:58;;;;;;;0.00;0.00;;;22.50;99.90;;;;;;5093736;28;20682;-62
2023/08/15 05:49:23;;;;;;;0.00;0.00;;;22.90;99.90;;;;;;5093765;28;20571;-61
2023/08/15 05:51:49;;;;;;;0.00;0.00;;;23.40;99.90;;;;;;5093702;28;20208;-62
2023/08/15 05:54:14;;;;;;;0.00;0.00;;;23.90;99.90;;;;;;5092316;28;20183;-62
2023/08/15 05:56:40;;;;;;;0.00;0.00;;;24.40;99.90;;;;;;5093627;28;20168;-62
2023/08/15 05:59:06;;;;;;;0.00;0.00;;;24.90;99.90;;;;;;5093450;28;20183;-62
2023/08/15 06:01:31;;;;;;;0.00;0.00;;;25.20;99.90;;;;;;5093390;28;20667;-62
2023/08/15 06:03:57;;;;;;;0.00;0.00;;;25.60;99.90;;;;;;5093452;28;20191;-62
2023/08/15 06:06:23;;;;;;;0.00;0.00;;;26.00;99.90;;;;;;5093447;28;20202;-62
2023/08/15 06:08:48;;;;;;;0.00;0.00;;;26.40;99.90;;;;;;5092123;28;20180;-60
2023/08/15 06:11:15;;;;;;;0.00;0.00;;;26.80;99.90;;;;;;5093156;28;20187;-62
2023/08/15 06:13:40;;;;;;;0.00;0.00;;;26.90;99.90;;;;;;5093338;28;20595;-62
2023/08/15 06:16:06;;;;;;;0.00;0.00;;;26.70;99.90;;;;;;5093202;28;20180;-62
2023/08/15 06:18:31;;;;;;;0.05;0.05;;;26.40;99.90;;;;;;5093186;28;20510;-62
2023/08/15 06:20:57;;;;;;;0.00;0.00;;;26.30;99.90;;;;;;5093061;28;20615;-62
2023/08/15 06:23:22;;;;;;;0.20;0.20;;;26.60;99.90;;;;;;5093201;28;20559;-62
2023/08/15 06:25:48;;;;;;;0.00;0.00;;;26.90;99.90;;;;;;5093140;28;20525;-63
2023/08/15 06:28:15;;;;;;;0.00;0.00;;;27.70;99.90;;;;;;5092551;28;20255;-62
2023/08/15 06:30:41;;;;;;;0.00;0.00;;;28.40;99.90;;;;;;5093065;28;20251;-62
2023/08/15 06:33:07;;;;;;;0.00;0.00;;;28.70;99.90;;;;;;5092753;28;20212;-62
2023/08/15 06:35:32;;;;;;;0.00;0.00;;;28.50;99.90;;;;;;5093016;28;20168;-61
2023/08/15 06:37:58;;;;;;;0.00;0.00;;;28.20;99.90;;;;;;5092957;28;20184;-61
2023/08/15 06:40:24;;;;;;;0.00;0.00;;;27.90;99.90;;;;;;5092744;28;20172;-62
2023/08/15 06:42:49;;;;;;;0.00;0.00;;;27.70;99.90;;;;;;5092711;28;20176;-63
2023/08/15 06:45:16;;;;;;;0.10;0.10;;;27.50;99.90;;;;;;5092488;28;20168;-62
2023/08/15 06:47:42;;;;;;;0.00;0.00;;;27.30;99.90;;;;;;5092611;28;20180;-62
2023/08/15 06:50:08;;;;;;;0.00;0.00;;;27.20;99.90;;;;;;5092568;28;20236;-62
2023/08/15 06:52:34;;;;;;;0.00;0.00;;;27.20;99.90;;;;;;5092354;28;20731;-63
2023/08/15 06:55:03;;;;;;;0.00;0.00;;;27.20;99.90;;;;;;5092584;28;20172;-62
2023/08/15 06:57:30;;;;;;;0.17;0.17;;;27.00;99.90;;;;;;5092812;28;20194;-62
2023/08/15 06:59:56;;;;;;;0.00;0.00;;;26.90;99.90;;;;;;5092800;28;20176;-62
2023/08/15 07:02:21;;;;;;;0.00;0.00;;;26.80;99.90;;;;;;5092521;28;20631;-62
2023/08/15 07:04:48;;;;;;;0.05;0.05;;;26.80;99.90;;;;;;5092248;28;20182;-60
2023/08/15 07:07:14;;;;;;;0.00;0.00;;;26.90;99.90;;;;;;5092408;28;20222;-62
2023/08/15 07:09:40;;;;;;;0.00;0.00;;;26.80;99.90;;;;;;5092499;28;20251;-60
2023/08/15 07:12:05;;;;;;;0.00;0.00;;;26.70;99.90;;;;;;5091142;28;20215;-60
2023/08/15 07:14:32;;;;;;;0.00;0.00;;;26.50;99.90;;;;;;5092450;28;20712;-60
2023/08/15 07:16:57;;;;;;;0.00;0.00;;;26.40;99.90;;;;;;5092390;28;20184;-61
2023/08/15 07:19:23;;;;;;;0.20;0.20;;;26.20;99.90;;;;;;5092399;28;20704;-61
2023/08/15 07:21:49;;;;;;;0.00;0.00;;;26.10;99.90;;;;;;5092306;28;20198;-61
2023/08/15 07:24:15;;;;;;;0.00;0.00;;;26.10;99.90;;;;;;5092184;28;20631;-61
2023/08/15 07:26:41;;;;;;;0.10;0.10;;;26.10;99.90;;;;;;5092278;28;20263;-61
2023/08/15 07:29:06;;;;;;;0.00;0.00;;;26.20;99.90;;;;;;5091959;28;20303;-61
2023/08/15 07:31:32;;;;;;;0.00;0.00;;;26.50;99.90;;;;;;5091897;28;20175;-61
2023/08/15 07:33:57;;;;;;;0.10;0.05;;;26.80;99.90;;;;;;5092149;28;20180;-61
2023/08/15 07:36:24;;;;;;;0.20;0.20;;;27.10;99.90;;;;;;5092256;28;20191;-61
2023/08/15 07:38:49;;;;;;;0.00;0.00;;;27.30;99.90;;;;;;5092162;28;20180;-61
2023/08/15 07:41:15;;;;;;;0.03;0.03;;;27.40;99.90;;;;;;5091905;28;20168;-61
2023/08/15 07:43:40;;;;;;;0.20;0.20;;;27.70;99.90;;;;;;5092124;28;20168;-61
2023/08/15 07:46:06;;;;;;;0.30;0.20;;;27.80;99.90;;;;;;5091884;28;20171;-61
2023/08/15 07:48:31;;;;;;;0.00;0.00;;;27.80;99.90;;;;;;5091875;28;20593;-62
2023/08/15 07:50:57;;;;;;;0.00;0.00;;;27.70;99.90;;;;;;5091875;28;20177;-62
2023/08/15 07:53:23;;;;;;;0.00;0.00;;;28.30;99.90;;;;;;5091875;28;20255;-62
2023/08/15 07:55:49;;;;;;;0.20;0.13;;;29.30;99.90;;;;;;5091914;28;20197;-62
2023/08/15 07:58:14;;;;;;;0.00;0.00;;;30.40;99.90;;;;;;5091580;28;20175;-62
2023/08/15 08:00:42;;;;;;;0.00;0.00;;;31.30;99.90;;;;;;5091820;28;20176;-62
2023/08/15 08:03:08;;;;;;;0.00;0.00;;;32.10;99.90;;;;;;5091729;28;20202;-62
2023/08/15 08:05:34;;;;;;;0.00;0.00;;;32.60;97.90;;;;;;5091561;28;20540;-62
2023/08/15 08:08:00;;;;;;;0.28;0.20;;;33.20;97.30;;;;;;5091686;28;20171;-62
2023/08/15 08:10:25;;;;;;;0.00;0.00;;;33.80;95.80;;;;;;5091700;28;20229;-62
2023/08/15 08:12:51;;;;;;;0.05;0.05;;;34.10;94.20;;;;;;5091481;28;20215;-62
2023/08/15 08:15:16;;;;;;;0.00;0.00;;;33.70;93.80;;;;;;5091718;28;20172;-62
2023/08/15 08:17:42;;;;;;;0.00;0.00;;;33.40;94.30;;;;;;5094604;28;20172;-62
2023/08/15 08:20:17;;;;;;;0.00;0.00;;;33.00;94.70;;;;;;5095744;28;20197;-62
2023/08/15 08:22:43;;;;;;;0.00;0.00;;;33.30;94.40;;;;;;5095909;28;20256;-62
2023/08/15 08:25:19;;;;;;;0.00;0.00;;;33.80;94.40;;;;;;5095700;28;20171;-62
2023/08/15 08:27:45;;;;;;;0.00;0.00;;;34.60;93.40;;;;;;5095739;28;20203;-62
2023/08/15 08:30:12;;;;;;;0.00;0.00;;;35.10;91.70;;;;;;5095298;28;20294;-62
2023/08/15 08:32:38;;;;;;;0.32;0.32;;;35.00;90.00;;;;;;5095542;28;20211;-62
2023/08/15 08:35:05;;;;;;;0.00;0.00;;;34.60;89.70;;;;;;5095549;28;20232;-62
2023/08/15 08:37:31;;;;;;;0.00;0.00;;;34.30;90.20;;;;;;5095492;28;20232;-62
2023/08/15 08:39:57;;;;;;;0.45;0.15;;;33.90;90.30;;;;;;5095460;28;20647;-62
2023/08/15 08:42:23;;;;;;;0.00;0.00;;;33.60;89.50;;;;;;5095436;28;20205;-62
2023/08/15 08:44:50;;;;;;;0.10;0.10;;;33.40;90.80;;;;;;5095419;28;20176;-62
2023/08/15 08:47:20;;;;;;;0.00;0.00;;;33.30;91.00;;;;;;5095309;28;20288;-60
2023/08/15 08:49:47;;;;;;;0.00;0.00;;;33.10;90.70;;;;;;5095276;28;20179;-61
2023/08/15 08:52:14;;;;;;;0.57;0.57;;;32.90;90.40;;;;;;5094920;28;20195;-61
2023/08/15 08:54:40;;;;;;;0.00;0.00;;;32.50;89.80;;;;;;5095330;28;20261;-62
2023/08/15 08:57:07;;;;;;;0.10;0.10;;;32.20;90.10;;;;;;5095175;28;20263;-61
2023/08/15 08:59:35;;;;;;;0.10;0.10;;;32.00;90.10;;;;;;5095095;28;20210;-62
2023/08/15 09:02:00;;;;;;;0.00;0.00;;;31.90;91.10;;;;;;5094989;28;20212;-61
2023/08/15 09:04:26;;;;;;;0.03;0.03;;;31.90;90.90;;;;;;5094985;28;20241;-62
2023/08/15 09:06:52;;;;;;;0.00;0.00;;;31.90;91.60;;;;;;5094782;28;20222;-61
2023/08/15 09:09:19;;;;;;;0.00;0.00;;;32.00;91.50;;;;;;5095076;28;20229;-61
2023/08/15 09:11:46;;;;;;;0.00;0.00;;;32.00;91.30;;;;;;5094913;28;20199;-61
2023/08/15 09:14:12;;;;;;;0.10;0.10;;;31.90;91.60;;;;;;5094618;28;20180;-62
2023/08/15 09:16:47;;;;;;;0.00;0.00;;;31.70;91.50;;;;;;5094720;28;20173;-61
2023/08/15 09:19:13;;;;;;;0.10;0.10;;;31.70;92.00;;;;;;5094585;28;20189;-62
2023/08/15 09:21:39;;;;;;;0.00;0.00;;;31.60;92.40;;;;;;5094706;28;20659;-61
2023/08/15 09:24:06;;;;;;;0.00;0.00;;;31.70;92.70;;;;;;5094498;28;20179;-61
2023/08/15 09:26:33;;;;;;;0.00;0.00;;;31.70;92.50;;;;;;5094431;28;20175;-62
2023/08/15 09:28:58;;;;;;;0.00;0.00;;;31.60;92.70;;;;;;5094188;28;20261;-62
2023/08/15 09:31:24;;;;;;;0.10;0.10;;;31.60;92.60;;;;;;5094587;28;20261;-61
2023/08/15 09:33:49;;;;;;;0.00;0.00;;;31.70;92.50;;;;;;5094361;28;20697;-62
2023/08/15 09:36:15;;;;;;;0.00;0.00;;;31.60;93.10;;;;;;5094299;28;20201;-62
2023/08/15 09:38:41;;;;;;;0.00;0.00;;;31.70;93.40;;;;;;5094386;28;20544;-62
2023/08/15 09:41:11;;;;;;;0.00;0.00;;;31.60;93.30;;;;;;5094210;28;20225;-62
2023/08/15 09:43:49;;;;;;;0.00;0.00;;;31.50;94.10;;;;;;5094296;28;20206;-62
2023/08/15 09:46:16;;;;;;;0.00;0.00;;;31.20;94.10;;;;;;5094110;28;20184;-62
2023/08/15 09:48:44;;;;;;;0.00;0.00;;;31.00;94.60;;;;;;5094065;28;20516;-62
2023/08/15 09:51:13;;;;;;;0.00;0.00;;;30.70;95.00;;;;;;5094010;28;20601;-62
2023/08/15 09:53:41;;;;;;;0.00;0.00;;;30.60;95.80;;;;;;5094075;28;20218;-61
2023/08/15 09:56:07;;;;;;;0.00;0.00;;;30.50;96.00;;;;;;5094061;28;20539;-62
2023/08/15 09:58:33;;;;;;;0.08;0.08;;;30.30;96.10;;;;;;5093942;28;20636;-61
2023/08/15 10:01:02;;;;;;;0.25;0.25;;;30.10;96.30;;;;;;5093932;28;20225;-62
2023/08/15 10:03:41;;;;;;;0.00;0.00;;;29.80;96.70;;;;;;5093961;28;20183;-61
2023/08/15 10:06:08;;;;;;;0.00;0.00;;;29.60;97.50;;;;;;5093879;28;20179;-62
2023/08/15 10:08:38;;;;;;;0.00;0.00;;;29.50;97.90;;;;;;5093897;28;20176;-61
2023/08/15 10:11:06;;;;;;;0.00;0.00;;;29.50;98.10;;;;;;5093785;28;20176;-61
2023/08/15 10:13:32;;;;;;;0.00;0.00;;;29.70;98.10;;;;;;5093571;28;20211;-61
2023/08/15 10:15:59;;;;;;;0.00;0.00;;;29.90;98.90;;;;;;5093540;28;20175;-62
2023/08/15 10:18:25;;;;;;;0.00;0.00;;;30.20;98.10;;;;;;5093871;28;20172;-62
2023/08/15 10:20:52;;;;;;;1.48;1.10;;;30.40;98.00;;;;;;5093452;28;20198;-62
2023/08/15 10:23:32;;;;;;;0.00;0.00;;;30.50;97.80;;;;;;5093541;28;20184;-61
2023/08/15 10:25:58;;;;;;;0.00;0.00;;;30.50;98.10;;;;;;5093470;28;20176;-62
2023/08/15 10:28:27;;;;;;;0.08;0.08;;;30.60;98.00;;;;;;5093342;28;20224;-61
2023/08/15 10:30:53;;;;;;;0.00;0.00;;;30.60;98.00;;;;;;5093242;28;20176;-62
2023/08/15 10:33:23;;;;;;;0.08;0.08;;;30.50;98.20;;;;;;5093279;28;20222;-61
2023/08/15 10:35:50;;;;;;;0.00;0.00;;;30.50;98.10;;;;;;5093312;28;20184;-61
2023/08/15 10:38:18;;;;;;;0.00;0.00;;;30.20;98.50;;;;;;5093209;28;20226;-62
2023/08/15 10:40:44;;;;;;;0.00;0.00;;;29.90;98.00;;;;;;5092694;28;20199;-63
2023/08/15 10:43:12;;;;;;;0.10;0.10;;;29.60;98.50;;;;;;5093246;28;20727;-62
2023/08/15 10:45:52;;;;;;;0.00;0.00;;;29.50;99.10;;;;;;5093258;28;20180;-60
2023/08/15 10:48:41;;;;;;;0.25;0.17;;;29.40;99.20;;;;;;5093044;28;20176;-60
2023/08/15 10:51:26;;;;;;;0.00;0.00;;;29.30;99.50;;;;;;5093030;28;20210;-60
2023/08/15 10:53:55;;;;;;;0.00;0.00;;;29.40;99.80;;;;;;5092816;28;20261;-60
2023/08/15 10:56:23;;;;;;;0.00;0.00;;;29.50;99.90;;;;;;5092838;28;20180;-60
2023/08/15 10:58:49;;;;;;;0.03;0.03;;;29.40;99.90;;;;;;5092882;28;20546;-60
2023/08/15 11:01:20;;;;;;;0.03;0.03;;;29.50;99.70;;;;;;5092599;28;20176;-60
2023/08/15 11:03:50;;;;;;;0.00;0.00;;;29.50;99.90;;;;;;5092779;28;20176;-60
2023/08/15 11:06:16;;;;;;;0.00;0.00;;;29.90;99.80;;;;;;5092484;28;20229;-60
2023/08/15 11:08:44;;;;;;;0.00;0.00;;;30.50;99.60;;;;;;5092700;28;20669;-60
2023/08/15 11:11:10;;;;;;;0.10;0.10;;;31.20;99.20;;;;;;5092497;28;20183;-60
2023/08/15 11:13:40;;;;;;;0.00;0.00;;;31.80;97.00;;;;;;5092489;28;20553;-60
2023/08/15 11:16:07;;;;;;;0.45;0.45;;;32.30;97.10;;;;;;5092479;28;20677;-60
2023/08/15 11:18:32;;;;;;;0.00;0.00;;;32.40;94.40;;;;;;5092445;28;20180;-60
2023/08/15 11:20:59;;;;;;;0.00;0.00;;;32.30;93.10;;;;;;5092416;28;20512;-60
2023/08/15 11:23:28;;;;;;;0.00;0.00;;;32.50;93.90;;;;;;5092404;28;20175;-60
2023/08/15 11:26:03;;;;;;;0.05;0.05;;;32.40;91.30;;;;;;5092166;28;20195;-61
2023/08/15 11:28:30;;;;;;;0.00;0.00;;;32.50;91.80;;;;;;5092210;28;20254;-60
2023/08/15 11:31:01;;;;;;;0.00;0.00;;;32.80;90.60;;;;;;5092316;28;20164;-62
2023/08/15 11:33:30;;;;;;;0.00;0.00;;;33.20;91.10;;;;;;5092299;28;20211;-62
2023/08/15 11:36:00;;;;;;;0.00;0.00;;;33.60;90.80;;;;;;5092117;28;20641;-62
2023/08/15 11:38:30;;;;;;;0.00;0.00;;;33.70;90.20;;;;;;5092206;28;20243;-62
2023/08/15 11:40:57;;;;;;;0.00;0.00;;;33.80;90.00;;;;;;5092157;28;20229;-62
2023/08/15 11:43:23;;;;;;;0.00;0.00;;;33.60;90.40;;;;;;5092036;28;20260;-62
2023/08/15 11:45:49;;;;;;;0.10;0.10;;;33.20;90.40;;;;;;5092030;28;20179;-61
2023/08/15 11:48:14;;;;;;;0.00;0.00;;;32.60;90.50;;;;;;5091885;28;20176;-61
2023/08/15 11:50:43;;;;;;;0.00;0.00;;;32.10;91.20;;;;;;5091451;28;20172;-62
2023/08/15 11:53:10;;;;;;;0.30;0.30;;;31.70;91.70;;;;;;5091499;28;20215;-62
2023/08/15 11:55:36;;;;;;;0.20;0.20;;;31.50;91.10;;;;;;5091999;28;20180;-61
2023/08/15 11:58:03;;;;;;;0.30;0.30;;;31.40;91.60;;;;;;5091837;28;20186;-61
2023/08/15 12:00:29;;;;;;;0.10;0.10;;;31.00;90.90;;;;;;5092023;28;20215;-62
2023/08/15 12:02:55;;;;;;;0.00;0.00;;;30.80;91.10;;;;;;5091686;28;20212;-61
2023/08/15 12:05:21;;;;;;;0.00;0.00;;;30.60;92.00;;;;;;5091726;28;20176;-61
2023/08/15 12:07:48;;;;;;;0.00;0.00;;;30.60;92.50;;;;;;5091780;28;20172;-62
2023/08/15 12:10:15;;;;;;;0.00;0.00;;;30.70;92.60;;;;;;5091601;28;20176;-61
2023/08/15 12:12:47;;;;;;;0.00;0.00;;;30.70;91.70;;;;;;5091712;28;20317;-61
2023/08/15 12:15:15;;;;;;;0.00;0.00;;;30.70;91.60;;;;;;5091487;28;20176;-61
2023/08/15 12:17:41;;;;;;;0.38;0.38;;;30.70;91.80;;;;;;5091706;28;20542;-61
2023/08/15 12:20:11;;;;;;;0.20;0.20;;;30.60;92.10;;;;;;5091657;28;20247;-62
2023/08/15 12:22:41;;;;;;;0.00;0.00;;;30.80;92.10;;;;;;5091737;28;20226;-62
2023/08/15 12:25:08;;;;;;;0.00;0.00;;;31.00;91.80;;;;;;5091581;28;20242;-61
2023/08/15 12:27:39;;;;;;;0.00;0.00;;;31.30;90.40;;;;;;5091607;28;20222;-62
2023/08/15 12:30:05;;;;;;;0.10;0.10;;;31.60;90.20;;;;;;5091286;28;20227;-62
2023/08/15 12:32:31;;;;;;;0.00;0.00;;;31.70;90.00;;;;;;5091242;28;20611;-62
2023/08/15 12:34:57;;;;;;;0.00;0.00;;;31.70;89.20;;;;;;5091518;28;20176;-61
2023/08/15 12:37:23;;;;;;;0.00;0.00;;;31.60;90.40;;;;;;5091485;28;20176;-61
2023/08/15 12:39:49;;;;;;;0.05;0.05;;;31.60;90.70;;;;;;5091497;28;20202;-62
2023/08/15 12:42:15;;;;;;;0.00;0.00;;;31.60;90.40;;;;;;5091263;28;20172;-62
2023/08/15 12:44:42;;;;;;;1.42;1.27;;;31.80;91.10;;;;;;5091457;28;20180;-62
2023/08/15 12:47:10;;;;;;;0.00;0.00;;;32.10;90.90;;;;;;5091386;28;20510;-61